createdAt,value
2019-05-21T00:01:20.882Z,13.10
2019-05-21T00:03:50.041Z,13.20
2019-05-21T00:06:20.121Z,13.10
2019-05-21T00:08:49.377Z,13.10
2019-05-21T00:11:18.466Z,13.10
2019-05-21T00:13:47.396Z,13.10
2019-05-21T00:16:16.273Z,13.10
2019-05-21T00:18:45.198Z,13.20
2019-05-21T00:21:14.061Z,13.20
2019-05-21T00:23:42.912Z,13.20
2019-05-21T00:26:11.741Z,13.10
2019-05-21T00:28:39.626Z,13.20
2019-05-21T00:31:44.827Z,13.20
2019-05-21T00:34:50.466Z,13.30
2019-05-21T00:37:55.588Z,13.20
2019-05-21T00:41:00.472Z,13.20
2019-05-21T00:43:50.524Z,13.20
2019-05-21T00:46:19.798Z,13.20
2019-05-21T00:48:48.729Z,13.20
2019-05-21T00:51:17.569Z,13.20
2019-05-21T00:53:46.425Z,13.30
2019-05-21T00:56:16.323Z,13.30
2019-05-21T00:58:45.364Z,13.30
2019-05-21T01:01:14.610Z,13.20
2019-05-21T01:03:43.593Z,13.20
2019-05-21T01:06:12.703Z,13.10
2019-05-21T01:08:41.639Z,13.10
2019-05-21T01:11:10.946Z,13.10
2019-05-21T01:13:39.954Z,13.10
2019-05-21T01:16:08.857Z,13.10
2019-05-21T01:18:38.301Z,13.10
2019-05-21T01:21:17.237Z,13.10
2019-05-21T01:23:47.754Z,13.10
2019-05-21T01:26:16.617Z,13.20
2019-05-21T01:28:45.845Z,13.20
2019-05-21T01:31:14.866Z,13.20
2019-05-21T01:33:43.801Z,13.20
2019-05-21T01:36:12.730Z,13.00
2019-05-21T01:38:41.728Z,13.10
2019-05-21T01:41:10.670Z,13.20
2019-05-21T01:43:39.569Z,13.30
2019-05-21T01:46:08.523Z,13.20
2019-05-21T01:48:37.382Z,13.20
2019-05-21T01:51:06.298Z,13.10
2019-05-21T01:53:35.198Z,13.10
2019-05-21T01:56:04.593Z,13.10
2019-05-21T01:58:33.586Z,13.10
2019-05-21T02:01:32.155Z,13.20
2019-05-21T02:04:00.975Z,13.20
2019-05-21T02:06:29.982Z,13.10
2019-05-21T02:08:58.918Z,13.10
2019-05-21T02:11:28.077Z,13.20
2019-05-21T02:13:57.482Z,13.30
2019-05-21T02:16:26.393Z,13.20
2019-05-21T02:18:55.653Z,13.00
2019-05-21T02:21:24.929Z,12.90
2019-05-21T02:23:53.757Z,12.90
2019-05-21T02:26:22.637Z,12.90
2019-05-21T02:28:51.457Z,12.90
2019-05-21T02:31:20.311Z,13.00
2019-05-21T02:33:49.453Z,12.90
2019-05-21T02:36:18.554Z,12.90
2019-05-21T02:38:47.397Z,12.90
2019-05-21T02:41:16.278Z,12.90
2019-05-21T02:43:45.234Z,12.90
2019-05-21T02:46:14.164Z,12.80
2019-05-21T02:48:43.142Z,12.90
2019-05-21T02:51:12.131Z,13.00
2019-05-21T02:53:41.036Z,12.80
2019-05-21T02:56:10.045Z,12.90
2019-05-21T02:58:38.887Z,12.80
2019-05-21T03:01:24.342Z,12.90
2019-05-21T03:03:53.320Z,12.90
2019-05-21T03:06:22.545Z,12.80
2019-05-21T03:08:51.375Z,12.80
2019-05-21T03:11:20.286Z,12.80
2019-05-21T03:13:49.222Z,12.80
2019-05-21T03:16:18.172Z,12.70
2019-05-21T03:18:47.107Z,12.70
2019-05-21T03:21:15.939Z,12.60
2019-05-21T03:23:45.139Z,12.60
2019-05-21T03:26:14.393Z,12.50
2019-05-21T03:28:43.219Z,12.50
2019-05-21T03:31:12.354Z,12.50
2019-05-21T03:33:41.291Z,12.60
2019-05-21T03:36:10.196Z,12.40
2019-05-21T03:38:39.334Z,12.50
2019-05-21T03:41:08.558Z,12.50
2019-05-21T03:43:38.166Z,12.40
2019-05-21T03:46:07.101Z,12.40
2019-05-21T03:48:36.140Z,12.40
2019-05-21T03:51:05.350Z,12.40
2019-05-21T03:53:34.182Z,12.40
2019-05-21T03:56:03.175Z,12.40
2019-05-21T03:58:32.321Z,12.30
2019-05-21T04:01:01.170Z,12.30
2019-05-21T04:03:30.381Z,12.30
2019-05-21T04:05:59.304Z,12.30
2019-05-21T04:08:28.235Z,12.30
2019-05-21T04:10:57.197Z,12.30
2019-05-21T04:13:26.170Z,12.30
2019-05-21T04:16:23.379Z,12.30
2019-05-21T04:19:02.279Z,12.30
2019-05-21T04:21:31.122Z,12.20
2019-05-21T04:23:59.978Z,12.20
2019-05-21T04:26:28.862Z,12.20
2019-05-21T04:28:57.723Z,12.20
2019-05-21T04:31:27.165Z,12.30
2019-05-21T04:33:56.142Z,12.10
2019-05-21T04:36:25.082Z,12.20
2019-05-21T04:38:54.161Z,12.10
2019-05-21T04:41:23.076Z,12.20
2019-05-21T04:43:52.342Z,12.20
2019-05-21T04:46:21.253Z,12.20
2019-05-21T04:48:50.105Z,12.30
2019-05-21T04:51:19.207Z,12.30
2019-05-21T04:53:48.134Z,12.30
2019-05-21T04:56:17.295Z,12.20
2019-05-21T04:58:46.515Z,12.00
2019-05-21T05:01:15.598Z,12.10
2019-05-21T05:03:44.527Z,12.00
2019-05-21T05:06:13.370Z,12.00
2019-05-21T05:08:42.212Z,12.10
2019-05-21T05:11:11.215Z,12.20
2019-05-21T05:13:40.049Z,12.30
2019-05-21T05:16:09.550Z,12.30
2019-05-21T05:18:38.553Z,12.40
2019-05-21T05:21:07.381Z,12.30
2019-05-21T05:23:36.239Z,12.30
2019-05-21T05:26:05.280Z,12.20
2019-05-21T05:28:34.201Z,12.20
2019-05-21T05:31:03.125Z,12.30
2019-05-21T05:33:32.025Z,12.30
2019-05-21T05:36:00.870Z,12.10
2019-05-21T05:38:29.813Z,12.10
2019-05-21T05:40:58.708Z,12.00
2019-05-21T05:43:27.546Z,12.10
2019-05-21T05:45:56.611Z,12.10
2019-05-21T05:48:26.239Z,11.90
2019-05-21T05:50:57.312Z,12.00
2019-05-21T05:53:26.211Z,12.00
2019-05-21T05:55:55.040Z,12.10
2019-05-21T05:58:24.318Z,11.90
2019-05-21T06:00:53.513Z,12.10
2019-05-21T06:03:22.450Z,12.00
2019-05-21T06:05:51.467Z,12.10
2019-05-21T06:08:20.311Z,12.00
2019-05-21T06:10:49.263Z,12.10
2019-05-21T06:13:18.193Z,12.10
2019-05-21T06:15:47.021Z,12.10
2019-05-21T06:18:15.865Z,12.10
2019-05-21T06:20:44.724Z,12.00
2019-05-21T06:23:13.712Z,12.20
2019-05-21T06:25:42.690Z,12.20
2019-05-21T06:28:11.788Z,12.20
2019-05-21T06:30:40.934Z,12.30
2019-05-21T06:33:09.906Z,12.20
2019-05-21T06:35:38.973Z,12.30
2019-05-21T06:38:17.211Z,12.20
2019-05-21T06:40:38.700Z,12.20
2019-05-21T06:43:07.630Z,12.20
2019-05-21T06:45:36.812Z,12.30
2019-05-21T06:48:05.776Z,12.30
2019-05-21T06:50:37.452Z,12.40
2019-05-21T06:53:05.663Z,12.30
2019-05-21T06:55:34.873Z,12.20
2019-05-21T06:58:04.001Z,12.10
2019-05-21T07:00:33.345Z,12.00
2019-05-21T07:03:02.291Z,12.00
2019-05-21T07:05:31.194Z,12.00
2019-05-21T07:08:00.406Z,12.00
2019-05-21T07:10:29.274Z,12.00
2019-05-21T07:12:58.222Z,12.10
2019-05-21T07:15:27.243Z,12.10
2019-05-21T07:17:56.253Z,12.20
2019-05-21T07:20:25.237Z,12.20
2019-05-21T07:22:54.205Z,12.10
2019-05-21T07:25:23.917Z,12.00
2019-05-21T07:27:52.862Z,12.10
2019-05-21T07:30:21.862Z,12.00
2019-05-21T07:32:52.053Z,11.90
2019-05-21T07:35:21.442Z,11.90
2019-05-21T07:37:50.361Z,11.90
2019-05-21T07:40:19.911Z,11.90
2019-05-21T07:42:49.093Z,12.00
2019-05-21T07:45:18.787Z,12.00
2019-05-21T07:47:47.759Z,12.00
2019-05-21T07:50:16.959Z,12.00
2019-05-21T07:52:45.997Z,12.00
2019-05-21T07:55:15.058Z,11.90
2019-05-21T07:57:44.007Z,11.80
2019-05-21T08:00:13.826Z,11.70
2019-05-21T08:02:43.065Z,11.70
2019-05-21T08:05:12.086Z,11.80
2019-05-21T08:07:41.089Z,12.00
2019-05-21T08:10:10.756Z,11.90
2019-05-21T08:12:40.101Z,11.90
2019-05-21T08:15:09.695Z,12.00
2019-05-21T08:17:38.998Z,12.00
2019-05-21T08:20:10.841Z,12.10
2019-05-21T08:22:40.172Z,12.10
2019-05-21T08:25:09.195Z,11.90
2019-05-21T08:27:38.183Z,11.90
2019-05-21T08:30:07.634Z,11.90
2019-05-21T08:32:36.679Z,11.90
2019-05-21T08:35:06.156Z,11.70
2019-05-21T08:37:35.149Z,11.90
2019-05-21T08:40:04.569Z,11.90
2019-05-21T08:42:33.498Z,11.80
2019-05-21T08:45:03.349Z,12.00
2019-05-21T08:47:33.037Z,12.00
2019-05-21T08:50:01.923Z,11.90
2019-05-21T08:52:31.027Z,11.90
2019-05-21T08:55:00.295Z,12.00
2019-05-21T08:57:29.480Z,11.90
2019-05-21T08:59:58.896Z,11.90
2019-05-21T09:02:27.949Z,11.90
2019-05-21T09:04:57.065Z,12.00
2019-05-21T09:07:26.172Z,12.10
2019-05-21T09:09:55.259Z,12.10
2019-05-21T09:12:24.202Z,12.20
2019-05-21T09:14:53.237Z,12.20
2019-05-21T09:17:22.153Z,12.20
2019-05-21T09:19:51.188Z,12.10
2019-05-21T09:22:20.198Z,12.10
2019-05-21T09:24:49.084Z,12.20
2019-05-21T09:27:17.985Z,12.30
2019-05-21T09:29:46.927Z,12.40
2019-05-21T09:32:15.978Z,12.60
2019-05-21T09:34:49.169Z,12.60
2019-05-21T09:37:19.785Z,12.50
2019-05-21T09:39:46.500Z,12.50
2019-05-21T09:42:15.435Z,12.50
2019-05-21T09:44:44.650Z,12.50
2019-05-21T09:47:13.630Z,12.30
2019-05-21T09:49:42.575Z,12.40
2019-05-21T09:52:11.594Z,12.50
2019-05-21T09:54:40.421Z,12.60
2019-05-21T09:57:11.363Z,12.70
2019-05-21T09:59:48.303Z,12.70
2019-05-21T10:02:20.857Z,12.60
2019-05-21T10:04:49.855Z,12.60
2019-05-21T10:07:36.387Z,12.70
2019-05-21T10:09:50.111Z,12.80
2019-05-21T10:12:19.414Z,12.70
2019-05-21T10:14:48.478Z,12.60
2019-05-21T10:17:17.771Z,12.60
2019-05-21T10:19:46.854Z,12.70
2019-05-21T10:22:15.727Z,12.80
2019-05-21T10:24:44.707Z,12.80
2019-05-21T10:27:14.069Z,12.80
2019-05-21T10:29:43.057Z,12.80
2019-05-21T10:32:12.060Z,12.80
2019-05-21T10:34:41.373Z,12.90
2019-05-21T10:37:10.305Z,12.80
2019-05-21T10:39:39.713Z,12.70
2019-05-21T10:42:08.980Z,12.80
2019-05-21T10:44:38.062Z,12.90
2019-05-21T10:47:07.063Z,12.80
2019-05-21T10:49:35.978Z,12.90
2019-05-21T10:52:05.222Z,12.80
2019-05-21T10:54:34.145Z,12.60
2019-05-21T10:57:03.248Z,12.60
2019-05-21T10:59:32.103Z,12.70
2019-05-21T11:02:18.658Z,12.90
2019-05-21T11:04:52.786Z,12.90
2019-05-21T11:07:22.698Z,13.00
2019-05-21T11:09:52.007Z,13.00
2019-05-21T11:12:20.958Z,13.10
2019-05-21T11:14:50.142Z,13.00
2019-05-21T11:17:19.446Z,13.00
2019-05-21T11:19:48.540Z,13.10
2019-05-21T11:22:17.817Z,13.30
2019-05-21T11:24:46.831Z,13.20
2019-05-21T11:27:15.836Z,12.90
2019-05-21T11:29:44.773Z,13.10
2019-05-21T11:32:13.842Z,13.20
2019-05-21T11:34:42.835Z,12.90
2019-05-21T11:37:11.823Z,12.80
2019-05-21T11:39:40.962Z,12.80
2019-05-21T11:42:10.161Z,12.90
2019-05-21T11:44:38.993Z,13.00
2019-05-21T11:47:07.983Z,13.20
2019-05-21T11:49:36.949Z,13.20
2019-05-21T11:52:05.960Z,13.10
2019-05-21T11:54:35.540Z,13.10
2019-05-21T11:57:04.562Z,13.10
2019-05-21T11:59:33.599Z,13.10
2019-05-21T12:02:02.925Z,13.20
2019-05-21T12:04:31.778Z,13.20
2019-05-21T12:07:03.276Z,13.10
2019-05-21T12:09:31.431Z,13.20
2019-05-21T12:12:00.301Z,13.20
2019-05-21T12:14:29.194Z,13.20
2019-05-21T12:16:58.116Z,13.20
2019-05-21T12:19:27.136Z,13.20
2019-05-21T12:21:55.978Z,13.30
2019-05-21T12:24:27.621Z,13.30
2019-05-21T12:26:55.872Z,13.30
2019-05-21T12:29:24.769Z,13.10
2019-05-21T12:31:53.678Z,13.10
2019-05-21T12:34:22.658Z,13.10
2019-05-21T12:36:51.581Z,13.00
2019-05-21T12:39:20.688Z,13.20
2019-05-21T12:41:49.723Z,13.00
2019-05-21T12:44:18.706Z,13.00
2019-05-21T12:46:47.947Z,12.70
2019-05-21T12:49:17.042Z,13.00
2019-05-21T12:51:46.022Z,13.00
2019-05-21T12:54:14.859Z,13.00
2019-05-21T12:56:43.694Z,13.10
2019-05-21T12:59:12.694Z,13.20
2019-05-21T13:01:41.943Z,13.20
2019-05-21T13:04:10.802Z,13.20
2019-05-21T13:06:40.056Z,13.10
2019-05-21T13:09:09.323Z,12.90
2019-05-21T13:11:38.547Z,13.10
2019-05-21T13:14:07.680Z,13.00
2019-05-21T13:16:36.674Z,13.00
2019-05-21T13:19:05.693Z,13.00
2019-05-21T13:21:34.606Z,12.80
2019-05-21T13:24:03.650Z,12.80
2019-05-21T13:26:32.650Z,12.80
2019-05-21T13:29:01.627Z,12.80
2019-05-21T13:31:30.464Z,12.80
2019-05-21T13:33:59.610Z,12.80
2019-05-21T13:36:28.531Z,12.80
2019-05-21T13:38:57.531Z,12.80
2019-05-21T13:41:26.584Z,12.90
2019-05-21T13:43:55.519Z,12.90
2019-05-21T13:46:24.685Z,13.00
2019-05-21T13:48:53.598Z,12.80
2019-05-21T13:51:22.619Z,12.70
2019-05-21T13:53:51.491Z,12.80
2019-05-21T13:56:20.417Z,12.90
2019-05-21T13:58:49.534Z,12.80
2019-05-21T14:01:18.924Z,12.90
2019-05-21T14:03:48.332Z,12.70
2019-05-21T14:06:20.106Z,12.80
2019-05-21T14:08:47.869Z,12.70
2019-05-21T14:11:16.907Z,12.70
2019-05-21T14:13:45.801Z,12.70
2019-05-21T14:16:15.061Z,12.50
2019-05-21T14:18:44.044Z,12.60
2019-05-21T14:21:13.323Z,12.70
2019-05-21T14:23:42.210Z,12.70
2019-05-21T14:26:11.310Z,12.80
2019-05-21T14:28:40.211Z,12.80
2019-05-21T14:31:09.239Z,12.80
2019-05-21T14:33:38.466Z,12.60
2019-05-21T14:36:07.768Z,12.60
2019-05-21T14:38:36.899Z,12.60
2019-05-21T14:41:05.918Z,12.80
2019-05-21T14:43:34.802Z,12.70
2019-05-21T14:46:03.798Z,12.70
2019-05-21T14:48:32.630Z,12.50
2019-05-21T14:51:01.571Z,12.50
2019-05-21T14:53:30.406Z,12.60
2019-05-21T14:55:59.250Z,12.60
2019-05-21T14:58:28.159Z,12.70
2019-05-21T15:00:57.460Z,12.80
2019-05-21T15:03:29.345Z,12.80
2019-05-21T15:05:57.218Z,12.80
2019-05-21T15:08:26.529Z,12.70
2019-05-21T15:10:55.380Z,12.60
2019-05-21T15:13:24.295Z,12.50
2019-05-21T15:15:53.224Z,12.50
2019-05-21T15:18:22.560Z,12.60
2019-05-21T15:21:11.969Z,12.40
2019-05-21T15:23:41.680Z,12.50
2019-05-21T15:26:11.511Z,12.40
2019-05-21T15:28:40.479Z,12.40
2019-05-21T15:31:09.753Z,12.50
2019-05-21T15:33:38.787Z,12.60
2019-05-21T15:36:07.745Z,12.70
2019-05-21T15:38:49.444Z,12.70
2019-05-21T15:41:11.511Z,12.60
2019-05-21T15:43:38.129Z,12.70
2019-05-21T15:46:07.129Z,12.70
2019-05-21T15:48:36.077Z,12.70
2019-05-21T15:51:05.462Z,12.70
2019-05-21T15:53:34.370Z,12.50
2019-05-21T15:56:03.191Z,12.40
2019-05-21T15:58:32.294Z,12.60
2019-05-21T16:01:01.321Z,12.50
2019-05-21T16:03:30.675Z,12.50
2019-05-21T16:05:59.607Z,12.50
2019-05-21T16:08:29.472Z,12.50
2019-05-21T16:10:58.591Z,12.40
2019-05-21T16:13:27.591Z,12.50
2019-05-21T16:15:56.564Z,12.80
2019-05-21T16:18:25.403Z,12.70
2019-05-21T16:20:54.319Z,12.70
2019-05-21T16:23:23.246Z,13.00
2019-05-21T16:25:52.254Z,13.00
2019-05-21T16:28:21.138Z,12.90
2019-05-21T16:30:50.107Z,12.90
2019-05-21T16:33:19.087Z,12.80
2019-05-21T16:35:48.027Z,12.70
2019-05-21T16:38:17.273Z,12.70
2019-05-21T16:40:46.169Z,12.80
2019-05-21T16:43:15.210Z,12.80
2019-05-21T16:45:44.141Z,12.90
2019-05-21T16:48:13.290Z,12.90
2019-05-21T16:50:42.370Z,13.10
2019-05-21T16:53:11.739Z,13.00
2019-05-21T16:55:40.866Z,12.90
2019-05-21T16:58:10.204Z,12.80
2019-05-21T17:00:39.512Z,12.80
2019-05-21T17:03:08.859Z,12.80
2019-05-21T17:05:37.754Z,12.80
2019-05-21T17:08:06.933Z,12.80
2019-05-21T17:10:35.841Z,12.80
2019-05-21T17:13:04.917Z,12.80
2019-05-21T17:15:33.893Z,12.50
2019-05-21T17:18:03.177Z,12.50
2019-05-21T17:20:34.235Z,12.50
2019-05-21T17:23:03.078Z,12.60
2019-05-21T17:25:32.183Z,12.70
2019-05-21T17:28:01.165Z,12.80
2019-05-21T17:30:30.550Z,12.70
2019-05-21T17:32:59.521Z,12.80
2019-05-21T17:35:28.516Z,12.80
2019-05-21T17:37:57.425Z,12.80
2019-05-21T17:40:26.891Z,12.80
2019-05-21T17:42:56.077Z,12.80
2019-05-21T17:45:25.030Z,12.70
2019-05-21T17:47:54.279Z,12.80
2019-05-21T17:50:23.376Z,12.60
2019-05-21T17:52:52.342Z,12.60
2019-05-21T17:55:21.283Z,12.70
2019-05-21T17:57:50.307Z,12.70
2019-05-21T18:00:25.135Z,12.70
2019-05-21T18:02:54.350Z,12.60
2019-05-21T18:05:24.409Z,12.70
2019-05-21T18:07:53.690Z,12.70
2019-05-21T18:10:22.833Z,12.70
2019-05-21T18:12:52.006Z,12.70
2019-05-21T18:15:21.134Z,12.80
2019-05-21T18:17:49.963Z,12.80
2019-05-21T18:20:22.338Z,12.90
2019-05-21T18:22:51.970Z,12.90
2019-05-21T18:25:21.620Z,12.90
2019-05-21T18:27:50.841Z,12.90
2019-05-21T18:30:20.239Z,12.90
2019-05-21T18:32:50.835Z,12.80
2019-05-21T18:35:19.775Z,12.80
2019-05-21T18:37:48.853Z,12.70
2019-05-21T18:40:18.479Z,12.70
2019-05-21T18:42:47.679Z,12.70
2019-05-21T18:45:16.676Z,12.80
2019-05-21T18:47:45.686Z,12.80
2019-05-21T18:50:14.839Z,12.60
2019-05-21T18:52:43.809Z,12.70
2019-05-21T18:55:13.132Z,12.80
2019-05-21T18:57:42.087Z,12.80
2019-05-21T19:00:11.914Z,12.80
2019-05-21T19:02:41.122Z,12.80
2019-05-21T19:05:10.824Z,12.80
2019-05-21T19:07:40.102Z,12.70
2019-05-21T19:10:10.334Z,12.70
2019-05-21T19:12:39.510Z,12.70
2019-05-21T19:15:09.657Z,12.70
2019-05-21T19:17:38.634Z,12.80
2019-05-21T19:20:08.065Z,12.90
2019-05-21T19:22:37.365Z,12.70
2019-05-21T19:25:06.838Z,12.60
2019-05-21T19:27:35.769Z,12.60
2019-05-21T19:30:05.606Z,12.60
2019-05-21T19:32:34.501Z,12.70
2019-05-21T19:35:03.520Z,12.70
2019-05-21T19:37:32.420Z,12.70
2019-05-21T19:40:01.396Z,12.70
2019-05-21T19:42:30.329Z,12.70
2019-05-21T19:44:59.283Z,12.80
2019-05-21T19:47:28.194Z,12.70
2019-05-21T19:49:57.122Z,12.60
2019-05-21T19:52:25.985Z,12.50
2019-05-21T19:54:55.259Z,12.50
2019-05-21T19:57:25.824Z,12.60
2019-05-21T19:59:54.674Z,12.70
2019-05-21T20:02:23.576Z,12.70
2019-05-21T20:04:53.529Z,12.80
2019-05-21T20:07:24.155Z,12.70
2019-05-21T20:09:53.925Z,12.60
2019-05-21T20:12:23.692Z,12.60
2019-05-21T20:14:52.630Z,12.60
2019-05-21T20:17:22.423Z,12.60
2019-05-21T20:19:52.490Z,12.60
2019-05-21T20:22:21.830Z,12.70
2019-05-21T20:24:51.505Z,12.70
2019-05-21T20:27:20.929Z,12.60
2019-05-21T20:29:50.125Z,12.60
2019-05-21T20:32:21.386Z,12.60
2019-05-21T20:34:53.590Z,12.60
2019-05-21T20:37:26.278Z,12.50
2019-05-21T20:39:57.309Z,12.50
2019-05-21T20:42:28.939Z,12.50
2019-05-21T20:44:58.674Z,12.60
2019-05-21T20:47:27.672Z,12.70
2019-05-21T20:49:57.320Z,12.70
2019-05-21T20:52:26.726Z,12.80
2019-05-21T20:54:57.338Z,12.70
2019-05-21T20:57:28.693Z,12.70
2019-05-21T20:59:57.761Z,12.70
2019-05-21T21:02:28.257Z,12.60
2019-05-21T21:04:57.643Z,12.60
2019-05-21T21:07:26.493Z,12.60
2019-05-21T21:09:55.472Z,12.60
2019-05-21T21:12:24.994Z,12.60
2019-05-21T21:14:54.298Z,12.60
2019-05-21T21:17:23.793Z,12.50
2019-05-21T21:19:53.255Z,12.50
2019-05-21T21:22:22.353Z,12.50
2019-05-21T21:24:51.574Z,12.50
2019-05-21T21:27:20.691Z,12.40
2019-05-21T21:29:49.643Z,12.50
2019-05-21T21:32:18.765Z,12.50
2019-05-21T21:34:47.849Z,12.50
2019-05-21T21:37:16.752Z,12.50
2019-05-21T21:39:45.821Z,12.50
2019-05-21T21:42:15.017Z,12.50
2019-05-21T21:44:44.639Z,12.50
2019-05-21T21:47:15.673Z,12.60
2019-05-21T21:49:45.136Z,12.60
2019-05-21T21:52:15.095Z,12.50
2019-05-21T21:54:45.436Z,12.50
2019-05-21T21:57:14.570Z,12.50
2019-05-21T21:59:43.682Z,12.60
2019-05-21T22:02:28.504Z,12.50
2019-05-21T22:04:58.620Z,12.50
2019-05-21T22:07:29.519Z,12.50
2019-05-21T22:09:58.358Z,12.50
2019-05-21T22:12:27.461Z,12.40
2019-05-21T22:15:00.731Z,12.50
2019-05-21T22:17:29.905Z,12.50
2019-05-21T22:19:59.531Z,12.60
2019-05-21T22:22:29.233Z,12.70
2019-05-21T22:24:58.344Z,12.70
2019-05-21T22:27:27.901Z,12.70
2019-05-21T22:29:56.998Z,12.70
2019-05-21T22:32:26.999Z,12.70
2019-05-21T22:34:55.999Z,12.60
2019-05-21T22:37:26.520Z,12.70
2019-05-21T22:39:55.457Z,12.60
2019-05-21T22:42:24.973Z,12.50
2019-05-21T22:45:07.226Z,12.50
2019-05-21T22:47:26.342Z,12.40
2019-05-21T22:49:55.241Z,12.30
2019-05-21T22:52:24.148Z,12.40
2019-05-21T22:54:53.057Z,12.50
2019-05-21T22:57:22.049Z,12.50
2019-05-21T22:59:51.076Z,12.50
2019-05-21T23:02:24.956Z,12.30
2019-05-21T23:04:54.246Z,12.40
2019-05-21T23:07:23.150Z,12.50
2019-05-21T23:09:53.015Z,12.50
2019-05-21T23:12:22.619Z,12.50
2019-05-21T23:14:51.874Z,12.40
2019-05-21T23:17:21.593Z,12.40
2019-05-21T23:19:50.990Z,12.50
2019-05-21T23:22:22.542Z,12.50
2019-05-21T23:24:51.579Z,12.50
2019-05-21T23:27:21.550Z,12.40
2019-05-21T23:29:50.743Z,12.50
2019-05-21T23:32:20.682Z,12.50
2019-05-21T23:34:50.461Z,12.50
2019-05-21T23:37:21.602Z,12.50
2019-05-21T23:39:52.933Z,12.50
2019-05-21T23:42:29.658Z,12.50
2019-05-21T23:44:53.628Z,12.40
2019-05-21T23:47:23.408Z,12.40
2019-05-21T23:49:52.500Z,12.50
2019-05-21T23:52:21.506Z,12.50
2019-05-21T23:54:51.161Z,12.50
2019-05-21T23:57:27.210Z,12.60
2019-05-21T23:59:56.778Z,12.60
